createdAt,value
2022-10-24T00:00:25.279Z,98044.19
2022-10-24T00:01:26.682Z,98037.66
2022-10-24T00:02:28.065Z,98049.53
2022-10-24T00:03:29.432Z,98030.69
2022-10-24T00:04:30.960Z,98050.16
2022-10-24T00:05:32.236Z,98041.34
2022-10-24T00:06:33.575Z,98042.81
2022-10-24T00:07:34.919Z,98043.13
2022-10-24T00:08:36.767Z,98043.88
2022-10-24T00:09:38.151Z,98045.34
2022-10-24T00:10:43.899Z,98043.03
2022-10-24T00:11:45.260Z,98039.16
2022-10-24T00:12:46.756Z,98045.66
2022-10-24T00:13:48.294Z,98036.78
2022-10-24T00:14:49.644Z,98049.41
2022-10-24T00:15:50.997Z,98049.78
2022-10-24T00:16:52.476Z,98048.16
2022-10-24T00:17:53.771Z,98047.31
2022-10-24T00:18:55.134Z,98045.00
2022-10-24T00:19:56.420Z,98054.19
2022-10-24T00:20:57.771Z,98045.72
2022-10-24T00:21:59.080Z,98049.13
2022-10-24T00:23:00.358Z,98053.28
2022-10-24T00:24:01.763Z,98057.88
2022-10-24T00:25:03.065Z,98060.47
2022-10-24T00:26:05.361Z,98056.34
2022-10-24T00:27:06.682Z,98052.50
2022-10-24T00:28:08.701Z,98060.47
2022-10-24T00:29:10.380Z,98049.38
2022-10-24T00:30:11.952Z,98052.31
2022-10-24T00:31:15.000Z,98060.19
2022-10-24T00:32:16.351Z,98064.31
2022-10-24T00:33:17.685Z,98058.47
2022-10-24T00:34:18.972Z,98061.09
2022-10-24T00:35:20.676Z,98059.47
2022-10-24T00:36:22.909Z,98057.84
2022-10-24T00:37:24.223Z,98067.72
2022-10-24T00:38:25.509Z,98069.97
2022-10-24T00:39:26.826Z,98066.53
2022-10-24T00:40:28.127Z,98073.03
2022-10-24T00:41:32.994Z,98076.84
2022-10-24T00:42:34.310Z,98072.94
2022-10-24T00:43:35.611Z,98078.00
2022-10-24T00:44:38.323Z,98077.25
2022-10-24T00:45:45.612Z,98078.72
2022-10-24T00:46:49.867Z,98087.25
2022-10-24T00:47:51.385Z,98079.63
2022-10-24T00:48:53.660Z,98084.22
2022-10-24T00:50:02.343Z,98084.63
2022-10-24T00:51:29.868Z,98076.25
2022-10-24T00:52:34.000Z,98077.38
2022-10-24T00:53:38.184Z,98081.25
2022-10-24T00:54:40.084Z,98072.53
2022-10-24T00:55:42.259Z,98082.50
2022-10-24T00:57:02.168Z,98077.16
2022-10-24T00:58:03.680Z,98072.56
2022-10-24T00:59:07.234Z,98070.66
2022-10-24T01:00:14.143Z,98074.84
2022-10-24T01:01:15.852Z,98067.94
2022-10-24T01:02:17.222Z,98071.72
2022-10-24T01:03:18.579Z,98076.31
2022-10-24T01:04:19.908Z,98080.47
2022-10-24T01:05:22.764Z,98078.56
2022-10-24T01:06:35.925Z,98077.03
2022-10-24T01:07:53.401Z,98073.50
2022-10-24T01:09:07.652Z,98070.75
2022-10-24T01:10:21.777Z,98074.19
2022-10-24T01:11:33.574Z,98075.47
2022-10-24T01:12:40.669Z,98070.63
2022-10-24T01:14:00.780Z,98068.28
2022-10-24T01:15:17.372Z,98067.41
2022-10-24T01:16:21.738Z,98068.22
2022-10-24T01:17:45.420Z,98071.59
2022-10-24T01:18:55.783Z,98067.31
2022-10-24T01:20:03.192Z,98069.97
2022-10-24T01:21:04.483Z,98072.25
2022-10-24T01:22:09.308Z,98069.56
2022-10-24T01:23:29.392Z,98076.03
2022-10-24T01:24:33.563Z,98070.69
2022-10-24T01:25:58.991Z,98077.94
2022-10-24T01:27:18.295Z,98069.97
2022-10-24T01:28:26.723Z,98067.31
2022-10-24T01:29:33.904Z,98073.78
2022-10-24T01:30:41.266Z,98072.66
2022-10-24T01:31:42.577Z,98076.47
2022-10-24T01:32:59.595Z,98073.03
2022-10-24T01:34:07.440Z,98074.94
2022-10-24T01:35:21.880Z,98071.81
2022-10-24T01:36:42.972Z,98070.34
2022-10-24T01:37:54.449Z,98071.47
2022-10-24T01:38:59.467Z,98064.91
2022-10-24T01:40:05.486Z,98069.56
2022-10-24T01:41:09.144Z,98068.50
2022-10-24T01:42:12.795Z,98066.38
2022-10-24T01:43:16.399Z,98069.13
2022-10-24T01:44:17.724Z,98071.09
2022-10-24T01:45:22.951Z,98078.34
2022-10-24T01:46:28.907Z,98073.03
2022-10-24T01:47:33.519Z,98074.31
2022-10-24T01:48:44.896Z,98064.38
2022-10-24T01:49:49.992Z,98063.63
2022-10-24T01:50:52.739Z,98060.78
2022-10-24T01:51:56.531Z,98051.97
2022-10-24T01:52:58.792Z,98063.03
2022-10-24T01:54:00.541Z,98055.09
2022-10-24T01:55:02.101Z,98056.56
2022-10-24T01:56:03.475Z,98055.41
2022-10-24T01:57:04.796Z,98054.56
2022-10-24T01:58:06.917Z,98056.41
2022-10-24T01:59:28.157Z,98049.28
2022-10-24T02:00:29.539Z,98060.78
2022-10-24T02:01:31.912Z,98049.19
2022-10-24T02:02:33.276Z,98052.66
2022-10-24T02:03:36.964Z,98050.75
2022-10-24T02:04:41.917Z,98058.72
2022-10-24T02:05:45.837Z,98058.38
2022-10-24T02:06:47.972Z,98065.94
2022-10-24T02:07:52.328Z,98061.28
2022-10-24T02:08:56.727Z,98068.59
2022-10-24T02:10:00.894Z,98066.28
2022-10-24T02:11:04.207Z,98067.47
2022-10-24T02:12:08.936Z,98059.81
2022-10-24T02:13:30.508Z,98068.97
2022-10-24T02:14:36.632Z,98067.47
2022-10-24T02:15:44.023Z,98068.81
2022-10-24T02:16:46.047Z,98072.28
2022-10-24T02:17:47.493Z,98076.16
2022-10-24T02:18:51.108Z,98064.22
2022-10-24T02:19:53.315Z,98068.38
2022-10-24T02:21:00.269Z,98065.00
2022-10-24T02:22:04.567Z,98065.00
2022-10-24T02:23:11.755Z,98064.31
2022-10-24T02:24:15.795Z,98068.53
2022-10-24T02:25:20.437Z,98057.75
2022-10-24T02:26:26.747Z,98057.66
2022-10-24T02:27:35.438Z,98049.97
2022-10-24T02:28:40.827Z,98052.25
2022-10-24T02:29:46.219Z,98039.63
2022-10-24T02:30:51.893Z,98043.03
2022-10-24T02:31:55.132Z,98042.94
2022-10-24T02:32:57.788Z,98046.78
2022-10-24T02:34:00.386Z,98035.25
2022-10-24T02:35:02.592Z,98048.25
2022-10-24T02:36:04.843Z,98040.91
2022-10-24T02:37:07.366Z,98045.50
2022-10-24T02:38:12.552Z,98042.78
2022-10-24T02:39:15.099Z,98040.59
2022-10-24T02:40:18.199Z,98032.25
2022-10-24T02:41:22.087Z,98025.28
2022-10-24T02:42:24.930Z,98026.81
2022-10-24T02:43:27.391Z,98032.94
2022-10-24T02:44:29.674Z,98034.44
2022-10-24T02:45:32.016Z,98030.91
2022-10-24T02:46:34.640Z,98029.38
2022-10-24T02:47:37.868Z,98035.06
2022-10-24T02:48:42.595Z,98027.00
2022-10-24T02:49:44.023Z,98033.03
2022-10-24T02:50:45.683Z,98024.66
2022-10-24T02:51:47.885Z,98029.59
2022-10-24T02:52:49.264Z,98029.53
2022-10-24T02:53:50.609Z,98032.56
2022-10-24T02:54:51.896Z,98032.91
2022-10-24T02:55:54.083Z,98023.03
2022-10-24T02:56:58.049Z,98026.06
2022-10-24T02:57:59.360Z,98019.59
2022-10-24T02:59:00.688Z,98027.25
2022-10-24T03:00:01.992Z,98016.50
2022-10-24T03:01:03.368Z,98021.00
2022-10-24T03:02:04.779Z,98023.28
2022-10-24T03:03:06.091Z,98021.31
2022-10-24T03:04:07.431Z,98017.09
2022-10-24T03:05:08.900Z,98023.53
2022-10-24T03:06:10.207Z,98021.66
2022-10-24T03:07:11.521Z,98019.31
2022-10-24T03:08:12.930Z,98016.03
2022-10-24T03:09:14.215Z,98018.69
2022-10-24T03:10:15.562Z,98020.25
2022-10-24T03:11:16.981Z,98022.47
2022-10-24T03:12:18.395Z,98023.28
2022-10-24T03:13:19.675Z,98027.53
2022-10-24T03:14:20.950Z,98036.38
2022-10-24T03:15:22.367Z,98033.63
2022-10-24T03:16:23.844Z,98036.38
2022-10-24T03:17:25.171Z,98034.19
2022-10-24T03:18:26.519Z,98033.03
2022-10-24T03:19:27.805Z,98024.94
2022-10-24T03:20:29.119Z,98026.16
2022-10-24T03:21:30.439Z,98029.53
2022-10-24T03:22:31.752Z,98030.78
2022-10-24T03:23:33.058Z,98037.34
2022-10-24T03:24:43.762Z,98042.25
2022-10-24T03:25:45.984Z,98040.00
2022-10-24T03:26:47.277Z,98039.94
2022-10-24T03:27:48.614Z,98040.66
2022-10-24T03:28:49.923Z,98033.41
2022-10-24T03:29:51.209Z,98038.75
2022-10-24T03:30:52.668Z,98036.50
2022-10-24T03:31:53.982Z,98035.28
2022-10-24T03:32:55.427Z,98042.63
2022-10-24T03:33:57.264Z,98046.91
2022-10-24T03:34:58.550Z,98047.97
2022-10-24T03:36:00.236Z,98053.34
2022-10-24T03:37:01.533Z,98055.16
2022-10-24T03:38:03.076Z,98052.09
2022-10-24T03:39:04.584Z,98057.81
2022-10-24T03:40:06.320Z,98049.47
2022-10-24T03:41:07.815Z,98052.34
2022-10-24T03:42:09.093Z,98048.53
2022-10-24T03:43:10.388Z,98049.78
2022-10-24T03:44:11.768Z,98044.88
2022-10-24T03:45:13.085Z,98043.66
2022-10-24T03:46:14.391Z,98039.44
2022-10-24T03:47:15.690Z,98033.41
2022-10-24T03:48:17.003Z,98031.09
2022-10-24T03:49:18.333Z,98029.19
2022-10-24T03:50:20.031Z,98021.84
2022-10-24T03:51:21.396Z,98031.47
2022-10-24T03:52:22.672Z,98030.25
2022-10-24T03:53:24.234Z,98035.63
2022-10-24T03:54:25.556Z,98037.16
2022-10-24T03:55:26.953Z,98036.75
2022-10-24T03:56:28.293Z,98036.75
2022-10-24T03:57:29.593Z,98038.72
2022-10-24T03:58:30.987Z,98039.22
2022-10-24T03:59:32.287Z,98038.00
2022-10-24T04:00:33.657Z,98040.28
2022-10-24T04:01:35.000Z,98040.28
2022-10-24T04:02:38.021Z,98054.38
2022-10-24T04:03:41.621Z,98042.88
2022-10-24T04:04:42.963Z,98049.38
2022-10-24T04:05:44.343Z,98048.31
2022-10-24T04:06:45.686Z,98049.84
2022-10-24T04:07:47.354Z,98056.34
2022-10-24T04:08:48.866Z,98049.00
2022-10-24T04:09:50.253Z,98052.75
2022-10-24T04:10:51.605Z,98047.41
2022-10-24T04:11:53.064Z,98052.75
2022-10-24T04:12:54.383Z,98060.47
2022-10-24T04:13:55.695Z,98060.00
2022-10-24T04:15:00.969Z,98054.84
2022-10-24T04:16:05.615Z,98052.16
2022-10-24T04:17:06.945Z,98065.94
2022-10-24T04:18:08.305Z,98066.28
2022-10-24T04:19:09.655Z,98060.16
2022-10-24T04:20:11.144Z,98052.59
2022-10-24T04:21:12.439Z,98057.88
2022-10-24T04:22:13.776Z,98055.63
2022-10-24T04:23:15.168Z,98054.84
2022-10-24T04:24:16.812Z,98055.97
2022-10-24T04:25:18.688Z,98052.47
2022-10-24T04:26:19.994Z,98056.69
2022-10-24T04:27:21.300Z,98054.38
2022-10-24T04:28:22.587Z,98053.22
2022-10-24T04:29:23.882Z,98046.41
2022-10-24T04:30:25.971Z,98045.63
2022-10-24T04:31:27.292Z,98056.28
2022-10-24T04:32:28.617Z,98047.84
2022-10-24T04:33:29.954Z,98043.34
2022-10-24T04:34:33.939Z,98049.09
2022-10-24T04:35:35.252Z,98042.50
2022-10-24T04:36:36.528Z,98045.94
2022-10-24T04:37:37.804Z,98043.59
2022-10-24T04:38:39.251Z,98043.94
2022-10-24T04:39:40.739Z,98042.41
2022-10-24T04:40:45.568Z,98040.91
2022-10-24T04:41:46.901Z,98035.84
2022-10-24T04:42:48.339Z,98037.34
2022-10-24T04:43:49.683Z,98033.44
2022-10-24T04:44:51.379Z,98034.94
2022-10-24T04:45:52.707Z,98041.09
2022-10-24T04:46:54.186Z,98031.50
2022-10-24T04:47:55.671Z,98032.28
2022-10-24T04:48:56.995Z,98023.03
2022-10-24T04:49:58.332Z,98023.47
2022-10-24T04:50:59.724Z,98019.59
2022-10-24T04:52:01.019Z,98016.84
2022-10-24T04:53:02.422Z,98014.88
2022-10-24T04:54:04.237Z,98022.84
2022-10-24T04:55:05.699Z,98022.84
2022-10-24T04:56:07.189Z,98022.38
2022-10-24T04:57:08.478Z,98020.81
2022-10-24T04:58:09.756Z,98025.03
2022-10-24T04:59:11.079Z,98038.44
2022-10-24T05:00:12.607Z,98038.06
2022-10-24T05:01:14.049Z,98043.09
2022-10-24T05:02:15.428Z,98038.53
2022-10-24T05:03:20.057Z,98043.63
2022-10-24T05:04:21.550Z,98044.53
2022-10-24T05:05:22.826Z,98044.16
2022-10-24T05:06:24.139Z,98049.19
2022-10-24T05:07:25.454Z,98044.16
2022-10-24T05:08:26.798Z,98044.94
2022-10-24T05:09:28.103Z,98044.25
2022-10-24T05:10:29.520Z,98040.00
2022-10-24T05:11:31.042Z,98038.88
2022-10-24T05:12:32.296Z,98043.59
2022-10-24T05:13:36.626Z,98036.81
2022-10-24T05:14:38.252Z,98039.84
2022-10-24T05:15:39.551Z,98046.09
2022-10-24T05:16:40.839Z,98038.06
2022-10-24T05:17:42.200Z,98039.88
2022-10-24T05:18:43.483Z,98038.72
2022-10-24T05:19:44.765Z,98043.41
2022-10-24T05:20:46.258Z,98036.84
2022-10-24T05:21:47.514Z,98034.94
2022-10-24T05:22:48.821Z,98031.53
2022-10-24T05:23:50.174Z,98033.47
2022-10-24T05:24:51.599Z,98028.47
2022-10-24T05:25:53.033Z,98029.22
2022-10-24T05:26:54.849Z,98024.72
2022-10-24T05:27:56.362Z,98030.06
2022-10-24T05:28:57.747Z,98028.94
2022-10-24T05:29:59.118Z,98037.06
2022-10-24T05:31:00.739Z,98048.56
2022-10-24T05:32:02.071Z,98052.81
2022-10-24T05:33:03.447Z,98060.44
2022-10-24T05:34:04.730Z,98061.25
2022-10-24T05:35:06.324Z,98056.75
2022-10-24T05:36:07.892Z,98051.00
2022-10-24T05:37:09.168Z,98056.31
2022-10-24T05:38:10.459Z,98040.22
2022-10-24T05:39:11.795Z,98047.03
2022-10-24T05:40:13.440Z,98038.28
2022-10-24T05:41:14.719Z,98024.75
2022-10-24T05:42:16.381Z,98048.84
2022-10-24T05:43:18.307Z,98035.38
2022-10-24T05:44:19.593Z,98027.63
2022-10-24T05:45:21.247Z,98036.34
2022-10-24T05:46:22.546Z,98047.75
2022-10-24T05:47:25.751Z,98041.88
2022-10-24T05:48:29.723Z,98035.91
2022-10-24T05:49:31.419Z,98036.56
2022-10-24T05:50:32.713Z,98044.13
2022-10-24T05:51:34.069Z,98043.72
2022-10-24T05:52:35.567Z,98054.28
2022-10-24T05:53:36.841Z,98054.25
2022-10-24T05:54:48.808Z,98062.50
2022-10-24T05:55:56.863Z,98062.44
2022-10-24T05:56:58.175Z,98065.31
2022-10-24T05:57:59.479Z,98064.56
2022-10-24T05:59:00.794Z,98066.47
2022-10-24T06:00:02.190Z,98059.47
2022-10-24T06:01:13.148Z,98069.69
2022-10-24T06:02:19.126Z,98073.06
2022-10-24T06:03:20.637Z,98055.91
2022-10-24T06:04:21.952Z,98058.91
2022-10-24T06:05:23.232Z,98063.84
2022-10-24T06:06:24.564Z,98084.88
2022-10-24T06:07:25.975Z,98102.47
2022-10-24T06:08:27.303Z,98124.56
2022-10-24T06:09:28.589Z,98158.88
2022-10-24T06:10:29.867Z,98158.09
2022-10-24T06:11:31.174Z,98154.22
2022-10-24T06:12:32.524Z,98151.13
2022-10-24T06:13:36.250Z,98154.56
2022-10-24T06:14:38.231Z,98159.84
2022-10-24T06:15:41.047Z,98164.69
2022-10-24T06:16:42.572Z,98169.19
2022-10-24T06:17:43.852Z,98166.09
2022-10-24T06:18:45.145Z,98161.00
2022-10-24T06:19:58.699Z,98159.09
2022-10-24T06:21:00.749Z,98145.22
2022-10-24T06:22:02.488Z,98144.00
2022-10-24T06:23:03.852Z,98135.09
2022-10-24T06:24:05.232Z,98134.34
2022-10-24T06:25:06.645Z,98129.69
2022-10-24T06:26:11.189Z,98124.69
2022-10-24T06:27:12.499Z,98126.25
2022-10-24T06:28:13.778Z,98128.84
2022-10-24T06:29:15.147Z,98120.72
2022-10-24T06:30:16.503Z,98125.28
2022-10-24T06:31:17.835Z,98129.44
2022-10-24T06:32:19.148Z,98117.59
2022-10-24T06:33:20.599Z,98126.06
2022-10-24T06:34:22.007Z,98139.53
2022-10-24T06:35:23.329Z,98139.69
2022-10-24T06:36:26.896Z,98132.44
2022-10-24T06:37:30.688Z,98136.25
2022-10-24T06:38:32.704Z,98134.78
2022-10-24T06:39:34.007Z,98139.38
2022-10-24T06:40:36.561Z,98142.81
2022-10-24T06:41:37.895Z,98132.09
2022-10-24T06:42:41.087Z,98142.03
2022-10-24T06:43:42.713Z,98139.38
2022-10-24T06:44:43.994Z,98137.47
2022-10-24T06:45:45.408Z,98139.41
2022-10-24T06:46:46.682Z,98131.06
2022-10-24T06:47:51.897Z,98127.25
2022-10-24T06:48:55.828Z,98130.03
2022-10-24T06:49:57.123Z,98132.75
2022-10-24T06:50:58.504Z,98128.91
2022-10-24T06:51:59.811Z,98137.69
2022-10-24T06:53:01.083Z,98131.56
2022-10-24T06:54:02.420Z,98131.56
2022-10-24T06:55:04.061Z,98138.88
2022-10-24T06:56:05.488Z,98138.47
2022-10-24T06:57:07.258Z,98147.97
2022-10-24T06:58:08.648Z,98143.72
2022-10-24T06:59:11.089Z,98149.06
2022-10-24T07:00:12.639Z,98154.00
2022-10-24T07:01:15.740Z,98155.91
2022-10-24T07:02:17.517Z,98155.91
2022-10-24T07:03:18.992Z,98157.47
2022-10-24T07:04:20.357Z,98154.09
2022-10-24T07:05:21.631Z,98161.00
2022-10-24T07:06:27.726Z,98166.00
2022-10-24T07:07:29.041Z,98180.09
2022-10-24T07:08:30.329Z,98183.84
2022-10-24T07:09:31.633Z,98188.13
2022-10-24T07:10:33.004Z,98188.88
2022-10-24T07:11:34.374Z,98183.44
2022-10-24T07:12:35.692Z,98179.91
2022-10-24T07:13:37.211Z,98169.88
2022-10-24T07:14:38.520Z,98158.78
2022-10-24T07:15:39.787Z,98162.22
2022-10-24T07:16:41.106Z,98153.31
2022-10-24T07:17:43.743Z,98139.63
2022-10-24T07:18:45.363Z,98139.63
2022-10-24T07:19:51.513Z,98138.59
2022-10-24T07:20:52.852Z,98142.31
2022-10-24T07:21:54.146Z,98148.75
2022-10-24T07:22:55.472Z,98166.63
2022-10-24T07:23:57.078Z,98184.13
2022-10-24T07:24:58.408Z,98187.91
2022-10-24T07:26:04.741Z,98184.13
2022-10-24T07:27:06.051Z,98182.47
2022-10-24T07:28:08.281Z,98182.47
2022-10-24T07:29:09.616Z,98180.94
2022-10-24T07:30:15.633Z,98182.47
2022-10-24T07:31:17.961Z,98183.25
2022-10-24T07:32:19.954Z,98187.59
2022-10-24T07:33:21.270Z,98176.44
2022-10-24T07:34:23.168Z,98179.56
2022-10-24T07:35:27.443Z,98167.75
2022-10-24T07:36:29.256Z,98163.25
2022-10-24T07:37:30.664Z,98160.16
2022-10-24T07:38:32.058Z,98147.91
2022-10-24T07:39:33.429Z,98151.44
2022-10-24T07:40:34.893Z,98137.22
2022-10-24T07:41:37.371Z,98126.53
2022-10-24T07:42:38.723Z,98132.28
2022-10-24T07:43:40.104Z,98130.75
2022-10-24T07:44:41.507Z,98128.06
2022-10-24T07:45:46.647Z,98130.75
2022-10-24T07:46:50.531Z,98130.13
2022-10-24T07:47:51.841Z,98135.09
2022-10-24T07:48:53.592Z,98137.38
2022-10-24T07:49:54.889Z,98138.50
2022-10-24T07:50:56.182Z,98129.69
2022-10-24T07:51:57.479Z,98132.78
2022-10-24T07:52:58.879Z,98136.59
2022-10-24T07:54:00.237Z,98140.81
2022-10-24T07:55:01.563Z,98148.94
2022-10-24T07:56:02.875Z,98156.09
2022-10-24T07:57:04.515Z,98154.09
2022-10-24T07:58:06.350Z,98164.81
2022-10-24T07:59:13.616Z,98164.38
2022-10-24T08:00:20.038Z,98167.91
2022-10-24T08:01:23.068Z,98166.78
2022-10-24T08:02:24.441Z,98161.44
2022-10-24T08:03:25.741Z,98156.88
2022-10-24T08:04:27.023Z,98164.97
2022-10-24T08:05:28.448Z,98158.09
2022-10-24T08:06:30.507Z,98166.13
2022-10-24T08:07:31.798Z,98167.22
2022-10-24T08:08:37.133Z,98170.41
2022-10-24T08:09:39.937Z,98162.41
2022-10-24T08:10:41.287Z,98159.72
2022-10-24T08:11:42.565Z,98157.88
2022-10-24T08:12:44.091Z,98167.53
2022-10-24T08:13:45.572Z,98166.44
2022-10-24T08:14:46.981Z,98171.84
2022-10-24T08:15:48.308Z,98181.97
2022-10-24T08:16:49.589Z,98176.06
2022-10-24T08:17:51.001Z,98174.94
2022-10-24T08:18:53.158Z,98174.84
2022-10-24T08:19:54.463Z,98177.78
2022-10-24T08:20:56.727Z,98176.34
2022-10-24T08:21:58.836Z,98171.66
2022-10-24T08:23:00.169Z,98165.19
2022-10-24T08:24:01.928Z,98164.09
2022-10-24T08:25:04.212Z,98168.63
2022-10-24T08:26:06.162Z,98162.50
2022-10-24T08:27:07.676Z,98158.72
2022-10-24T08:28:09.417Z,98148.84
2022-10-24T08:29:10.787Z,98147.31
2022-10-24T08:30:12.517Z,98143.09
2022-10-24T08:31:15.217Z,98130.41
2022-10-24T08:32:16.523Z,98135.06
2022-10-24T08:33:19.587Z,98125.13
2022-10-24T08:34:23.644Z,98131.25
2022-10-24T08:35:25.334Z,98138.09
2022-10-24T08:36:28.092Z,98140.00
2022-10-24T08:37:29.463Z,98145.69
2022-10-24T08:38:30.796Z,98149.50
2022-10-24T08:39:32.087Z,98146.47
2022-10-24T08:40:33.498Z,98150.06
2022-10-24T08:41:37.436Z,98150.50
2022-10-24T08:42:38.843Z,98149.78
2022-10-24T08:43:40.244Z,98144.09
2022-10-24T08:44:45.371Z,98142.19
2022-10-24T08:45:49.729Z,98141.09
2022-10-24T08:46:54.885Z,98143.03
2022-10-24T08:48:08.412Z,98145.09
2022-10-24T08:49:15.861Z,98153.56
2022-10-24T08:50:24.991Z,98140.16
2022-10-24T08:51:41.665Z,98152.50
2022-10-24T08:52:46.175Z,98158.72
2022-10-24T08:53:47.919Z,98154.13
2022-10-24T08:54:50.248Z,98155.75
2022-10-24T08:55:53.171Z,98160.34
2022-10-24T08:56:55.445Z,98156.88
2022-10-24T08:57:58.637Z,98150.41
2022-10-24T08:59:00.376Z,98156.94
2022-10-24T09:00:07.682Z,98152.78
2022-10-24T09:01:27.085Z,98161.25
2022-10-24T09:02:31.962Z,98153.13
2022-10-24T09:03:56.153Z,98159.28
2022-10-24T09:04:59.283Z,98164.28
2022-10-24T09:06:02.425Z,98154.25
2022-10-24T09:07:04.042Z,98155.75
2022-10-24T09:08:15.126Z,98157.38
2022-10-24T09:09:28.571Z,98154.63
2022-10-24T09:10:38.514Z,98161.03
2022-10-24T09:11:58.762Z,98164.06
2022-10-24T09:13:00.069Z,98170.88
2022-10-24T09:14:05.373Z,98173.38
2022-10-24T09:15:14.536Z,98173.38
2022-10-24T09:16:20.428Z,98177.88
2022-10-24T09:17:40.084Z,98177.09
2022-10-24T09:18:43.095Z,98177.72
2022-10-24T09:19:53.633Z,98180.75
2022-10-24T09:20:55.196Z,98186.81
2022-10-24T09:21:57.961Z,98186.53
2022-10-24T09:23:03.739Z,98186.88
2022-10-24T09:24:05.236Z,98192.59
2022-10-24T09:25:08.100Z,98186.53
2022-10-24T09:26:15.728Z,98189.22
2022-10-24T09:27:19.538Z,98203.00
2022-10-24T09:28:21.087Z,98200.41
2022-10-24T09:29:22.783Z,98204.16
2022-10-24T09:30:29.961Z,98203.72
2022-10-24T09:31:34.885Z,98211.75
2022-10-24T09:32:36.392Z,98202.16
2022-10-24T09:33:37.992Z,98202.59
2022-10-24T09:34:39.259Z,98202.69
2022-10-24T09:35:42.500Z,98200.34
2022-10-24T09:36:44.444Z,98204.50
2022-10-24T09:38:08.740Z,98205.28
2022-10-24T09:39:28.780Z,98203.00
2022-10-24T09:40:31.714Z,98206.13
2022-10-24T09:41:33.044Z,98195.69
2022-10-24T09:42:34.668Z,98196.88
2022-10-24T09:43:45.678Z,98198.28
2022-10-24T09:44:47.016Z,98193.78
2022-10-24T09:45:48.862Z,98208.66
2022-10-24T09:46:50.257Z,98200.13
2022-10-24T09:47:55.940Z,98193.63
2022-10-24T09:48:57.228Z,98192.78
2022-10-24T09:49:58.663Z,98179.81
2022-10-24T09:51:00.239Z,98185.09
2022-10-24T09:52:06.993Z,98180.50
2022-10-24T09:53:19.361Z,98188.53
2022-10-24T09:54:20.625Z,98189.00
2022-10-24T09:55:23.291Z,98188.19
2022-10-24T09:56:32.484Z,98198.28
2022-10-24T09:57:40.092Z,98190.63
2022-10-24T09:58:42.226Z,98189.75
2022-10-24T09:59:58.226Z,98187.34
2022-10-24T10:01:04.734Z,98187.50
2022-10-24T10:02:23.574Z,98189.41
2022-10-24T10:03:25.044Z,98185.19
2022-10-24T10:04:26.368Z,98189.00
2022-10-24T10:05:29.797Z,98193.13
2022-10-24T10:06:32.279Z,98193.50
2022-10-24T10:07:37.687Z,98188.53
2022-10-24T10:08:39.034Z,98196.94
2022-10-24T10:09:50.575Z,98203.84
2022-10-24T10:11:08.932Z,98202.38
2022-10-24T10:12:25.331Z,98204.25
2022-10-24T10:13:27.087Z,98206.69
2022-10-24T10:14:28.991Z,98210.41
2022-10-24T10:15:38.579Z,98204.25
2022-10-24T10:16:39.859Z,98199.69
2022-10-24T10:17:49.027Z,98203.91
2022-10-24T10:18:50.433Z,98198.56
2022-10-24T10:19:52.712Z,98198.56
2022-10-24T10:20:59.779Z,98198.97
2022-10-24T10:22:02.332Z,98197.78
2022-10-24T10:23:26.795Z,98188.00
2022-10-24T10:24:43.760Z,98196.13
2022-10-24T10:25:45.044Z,98196.53
2022-10-24T10:26:46.344Z,98200.00
2022-10-24T10:27:50.558Z,98195.75
2022-10-24T10:28:51.904Z,98194.97
2022-10-24T10:30:11.292Z,98201.56
2022-10-24T10:31:12.642Z,98201.28
2022-10-24T10:32:25.891Z,98200.91
2022-10-24T10:33:30.388Z,98192.59
2022-10-24T10:34:31.745Z,98196.13
2022-10-24T10:35:33.032Z,98190.09
2022-10-24T10:36:50.996Z,98190.13
2022-10-24T10:37:57.998Z,98189.44
2022-10-24T10:38:59.261Z,98189.09
2022-10-24T10:40:19.208Z,98187.69
2022-10-24T10:41:26.230Z,98189.16
2022-10-24T10:42:46.494Z,98185.50
2022-10-24T10:43:58.035Z,98191.63
2022-10-24T10:45:08.885Z,98186.28
2022-10-24T10:46:14.115Z,98192.44
2022-10-24T10:47:30.754Z,98196.00
2022-10-24T10:48:47.970Z,98196.47
2022-10-24T10:49:54.462Z,98199.63
2022-10-24T10:50:58.695Z,98196.16
2022-10-24T10:51:59.967Z,98194.38
2022-10-24T10:53:20.307Z,98198.19
2022-10-24T10:54:40.062Z,98194.75
2022-10-24T10:55:48.093Z,98197.06
2022-10-24T10:56:54.927Z,98206.03
2022-10-24T10:57:59.336Z,98205.66
2022-10-24T10:59:29.392Z,98209.13
2022-10-24T11:00:53.257Z,98221.81
2022-10-24T11:01:59.189Z,98223.31
2022-10-24T11:03:09.547Z,98218.84
2022-10-24T11:04:13.921Z,98224.56
2022-10-24T11:05:34.088Z,98220.75
2022-10-24T11:06:41.346Z,98221.13
2022-10-24T11:07:50.971Z,98230.63
2022-10-24T11:09:10.921Z,98226.91
2022-10-24T11:10:16.464Z,98228.50
2022-10-24T11:11:23.887Z,98226.13
2022-10-24T11:12:36.366Z,98223.03
2022-10-24T11:13:43.257Z,98221.41
2022-10-24T11:14:57.377Z,98225.19
2022-10-24T11:16:00.742Z,98222.53
2022-10-24T11:17:11.155Z,98222.94
2022-10-24T11:18:15.784Z,98233.25
2022-10-24T11:19:32.450Z,98220.28
2022-10-24T11:20:33.715Z,98231.69
2022-10-24T11:21:35.477Z,98228.69
2022-10-24T11:22:59.809Z,98229.78
2022-10-24T11:24:13.665Z,98231.00
2022-10-24T11:25:21.476Z,98226.47
2022-10-24T11:26:28.539Z,98227.63
2022-10-24T11:27:38.621Z,98226.13
2022-10-24T11:28:39.888Z,98230.72
2022-10-24T11:30:07.438Z,98220.09
2022-10-24T11:31:08.738Z,98223.22
2022-10-24T11:32:23.776Z,98216.31
2022-10-24T11:33:31.283Z,98215.59
2022-10-24T11:34:40.000Z,98212.59
2022-10-24T11:35:52.892Z,98223.34
2022-10-24T11:36:56.887Z,98222.69
2022-10-24T11:38:12.256Z,98228.78
2022-10-24T11:39:46.060Z,98221.94
2022-10-24T11:40:51.679Z,98222.69
2022-10-24T11:42:00.256Z,98224.19
2022-10-24T11:43:07.480Z,98218.81
2022-10-24T11:44:18.726Z,98219.25
2022-10-24T11:45:21.077Z,98221.09
2022-10-24T11:46:24.668Z,98224.53
2022-10-24T11:47:25.951Z,98218.03
2022-10-24T11:48:46.123Z,98214.94
2022-10-24T11:49:50.680Z,98219.66
2022-10-24T11:51:09.488Z,98215.00
2022-10-24T11:52:17.630Z,98212.31
2022-10-24T11:53:30.820Z,98207.84
2022-10-24T11:54:41.062Z,98206.25
2022-10-24T11:55:46.200Z,98203.97
2022-10-24T11:56:51.510Z,98206.66
2022-10-24T11:57:54.652Z,98213.59
2022-10-24T11:59:06.392Z,98203.97
2022-10-24T12:00:08.183Z,98207.16
2022-10-24T12:01:31.519Z,98205.25
2022-10-24T12:02:32.907Z,98196.41
2022-10-24T12:03:52.768Z,98199.09
2022-10-24T12:05:14.574Z,98201.41
2022-10-24T12:06:22.051Z,98196.06
2022-10-24T12:07:32.032Z,98196.91
2022-10-24T12:08:39.157Z,98197.66
2022-10-24T12:09:48.973Z,98196.16
2022-10-24T12:11:02.205Z,98189.31
2022-10-24T12:12:09.282Z,98188.47
2022-10-24T12:13:22.891Z,98181.50
2022-10-24T12:14:37.353Z,98183.78
2022-10-24T12:15:44.290Z,98182.22
2022-10-24T12:16:51.498Z,98184.50
2022-10-24T12:18:03.974Z,98178.06
2022-10-24T12:19:10.315Z,98169.63
2022-10-24T12:20:14.366Z,98169.22
2022-10-24T12:21:20.985Z,98176.06
2022-10-24T12:22:28.177Z,98174.97
2022-10-24T12:23:29.699Z,98171.47
2022-10-24T12:24:33.006Z,98172.69
2022-10-24T12:25:35.855Z,98168.41
2022-10-24T12:26:37.205Z,98170.72
2022-10-24T12:27:39.743Z,98166.13
2022-10-24T12:28:41.563Z,98166.13
2022-10-24T12:29:43.237Z,98166.47
2022-10-24T12:31:04.497Z,98173.38
2022-10-24T12:32:24.201Z,98163.44
2022-10-24T12:33:26.694Z,98163.44
2022-10-24T12:34:30.793Z,98165.72
2022-10-24T12:35:34.092Z,98178.75
2022-10-24T12:36:55.317Z,98172.16